Map

Track Data

SID SEASON NUMBER BASIN SUBBASIN NAME ISO_TIME NATURE LAT LON WMO_WIND WMO_PRES WMO_AGENCY TRACK_TYPE DIST2LAND LANDFALL IFLAG USA_AGENCY USA_ATCF_ID USA_LAT USA_LON USA_RECORD USA_STATUS USA_WIND USA_PRES USA_SSHS USA_R34_NE USA_R34_SE USA_R34_SW USA_R34_NW USA_R50_NE USA_R50_SE USA_R50_SW USA_R50_NW USA_R64_NE USA_R64_SE USA_R64_SW USA_R64_NW USA_POCI USA_ROCI USA_RMW USA_EYE TOKYO_LAT TOKYO_LON TOKYO_GRADE TOKYO_WIND TOKYO_PRES TOKYO_R50_DIR TOKYO_R50_LONG TOKYO_R50_SHORT TOKYO_R30_DIR TOKYO_R30_LONG TOKYO_R30_SHORT TOKYO_LAND CMA_LAT CMA_LON CMA_CAT CMA_WIND CMA_PRES HKO_LAT HKO_LON HKO_CAT HKO_WIND HKO_PRES NEWDELHI_LAT NEWDELHI_LON NEWDELHI_GRADE NEWDELHI_WIND NEWDELHI_PRES NEWDELHI_CI NEWDELHI_DP NEWDELHI_POCI REUNION_LAT REUNION_LON REUNION_TYPE REUNION_WIND REUNION_PRES REUNION_TNUM REUNION_CI REUNION_RMW REUNION_R34_NE REUNION_R34_SE REUNION_R34_SW REUNION_R34_NW REUNION_R50_NE REUNION_R50_SE REUNION_R50_SW REUNION_R50_NW REUNION_R64_NE REUNION_R64_SE REUNION_R64_SW REUNION_R64_NW BOM_LAT BOM_LON BOM_TYPE BOM_WIND BOM_PRES BOM_TNUM BOM_CI BOM_RMW BOM_R34_NE BOM_R34_SE BOM_R34_SW BOM_R34_NW BOM_R50_NE BOM_R50_SE BOM_R50_SW BOM_R50_NW BOM_R64_NE BOM_R64_SE BOM_R64_SW BOM_R64_NW BOM_ROCI BOM_POCI BOM_EYE BOM_POS_METHOD BOM_PRES_METHOD NADI_LAT NADI_LON NADI_CAT NADI_WIND NADI_PRES WELLINGTON_LAT WELLINGTON_LON WELLINGTON_WIND WELLINGTON_PRES DS824_LAT DS824_LON DS824_STAGE DS824_WIND DS824_PRES TD9636_LAT TD9636_LON TD9636_STAGE TD9636_WIND TD9636_PRES TD9635_LAT TD9635_LON TD9635_WIND TD9635_PRES TD9635_ROCI NEUMANN_LAT NEUMANN_LON NEUMANN_CLASS NEUMANN_WIND NEUMANN_PRES MLC_LAT MLC_LON MLC_CLASS MLC_WIND MLC_PRES USA_GUST BOM_GUST BOM_GUST_PER REUNION_GUST REUNION_GUST_PER USA_SEAHGT USA_SEARAD_NE USA_SEARAD_SE USA_SEARAD_SW USA_SEARAD_NW STORM_SPEED STORM_DIR
2020293N23139 2020 96 WP MM NOT_NAMED 2020-10-19 06:00:00 NR 22.6000 139.400 main 1256 1218 O_____________ jtwc_wp WP202020 22.6000 139.400 DB 20 1007 -3 7 329
2020293N23139 2020 96 WP MM NOT_NAMED 2020-10-19 09:00:00 NR 22.9151 139.190 main 1218 1180 P_____________ WP202020 22.9151 139.190 DB 20 1007 -3 7 328
2020293N23139 2020 96 WP MM NOT_NAMED 2020-10-19 12:00:00 NR 23.2000 139.000 main 1180 1156 O_____________ jtwc_wp WP202020 23.2000 139.000 DB 20 1007 -3 6 329
2020293N23139 2020 96 WP MM NOT_NAMED 2020-10-19 15:00:00 NR 23.4425 138.842 main 1152 1119 P_____________ WP202020 23.4425 138.842 DB 22 1006 -3 6 331
2020293N23139 2020 96 WP MM NOT_NAMED 2020-10-19 18:00:00 TS 23.7000 138.700 main 1119 1081 O_____________ jtwc_wp WP202020 23.7000 138.700 TD 25 1005 -1 1008 180 50 7 333
2020293N23139 2020 96 WP MM NOT_NAMED 2020-10-19 21:00:00 TS 24.0575 138.505 main 1070 1027 P_____________ WP202020 24.0575 138.505 TD 25 1005 -1 1008 180 50 8 350
2020293N23139 2020 96 WP MM NOT_NAMED 2020-10-20 00:00:00 TS 24.5200 138.540 main 1027 1008 O_O___________ jtwc_wp WP202020 24.4000 138.400 TD 25 1005 -1 1008 180 50 25.0000 139.100 1 25 1010 7 16
2020293N23139 2020 96 WP MM NOT_NAMED 2020-10-20 03:00:00 TS 24.7533 138.722 main 1000 995 P_P___________ WP202020 24.6299 138.482 TD 25 1005 -1 1009 165 50 25.0000 139.200 1 25 1010 5 46
2020293N23139 2020 96 WP MM NOT_NAMED 2020-10-20 06:00:00 TS 24.8857 138.957 main 998 990 O_O___________ jtwc_wp WP202020 24.8000 138.700 TD 25 1006 -1 1010 150 50 25.0000 139.300 1 25 1010 5 62
2020293N23139 2020 96 WP MM NOT_NAMED 2020-10-20 09:00:00 TS 24.9863 139.196 main 993 993 P_P___________ WP202020 24.9726 138.992 TD 27 1005 -1 1010 142 50 25.0000 139.400 1 27 1009 4 68
2020293N23139 2020 96 WP MM NOT_NAMED 2020-10-20 12:00:00 TS 25.0500 139.400 main 989 989 O_O___________ jtwc_wp WP202020 25.1000 139.300 TD 30 1004 -1 1011 135 50 25.0000 139.500 1 29 1008 4 72
2020293N23139 2020 96 WP MM NOT_NAMED 2020-10-20 15:00:00 TS 25.0975 139.565 main 996 996 P_P___________ WP202020 25.1875 139.530 TD 30 1004 -1 1010 135 47 25.0075 139.600 1 29 1008 3 80
2020293N23139 2020 96 WP MM NOT_NAMED 2020-10-20 18:00:00 TS 25.1000 139.700 main 1000 1000 O_O___________ jtwc_wp WP202020 25.2000 139.700 TD 30 1004 -1 1009 135 45 25.0000 139.700 1 29 1008 3 99
2020293N23139 2020 96 WP MM NOT_NAMED 2020-10-20 21:00:00 TS 25.0587 139.841 main 1003 1003 P_P___________ WP202020 25.1375 139.845 TD 30 1002 -1 1009 135 45 24.9800 139.838 1 29 1008 2 130
2020293N23139 2020 96 WP MM NOT_NAMED 2020-10-21 00:00:00 TS 24.9500 139.900 main 1018 1028 O_O___________ jtwc_wp WP202020 25.0000 139.900 TD 30 1001 -1 1009 135 45 24.9000 139.900 1 29 1008 3 189
2020293N23139 2020 96 WP MM NOT_NAMED 2020-10-21 03:00:00 TS 24.7613 139.809 main 1035 1035 P_P___________ WP202020 24.8150 139.830 TD 27 1002 -1 1008 137 45 24.7075 139.787 1 29 1008 5 210
2020293N23139 2020 96 WP MM NOT_NAMED 2020-10-21 06:00:00 TS 24.5500 139.650 main 1052 1049 O_O___________ jtwc_wp WP202020 24.6000 139.700 TD 25 1003 -1 1008 140 45 24.5000 139.600 1 29 1008 5 213
2020293N23139 2020 96 WP MM NOT_NAMED 2020-10-21 09:00:00 TS 24.3438 139.514 main 1077 1074 P_P___________ WP202020 24.3400 139.592 TD 22 1005 -1 1008 137 45 24.3475 139.435 1 27 1008 4 217
2020293N23139 2020 96 WP MM NOT_NAMED 2020-10-21 12:00:00 TS 24.2500 139.400 main 1074 1060 O_O___________ jtwc_wp WP202020 24.2000 139.500 DB 20 1007 -3 1009 135 45 24.3000 139.300 1 25 1008 2 276
2020293N23139 2020 96 WP MM NOT_NAMED 2020-10-21 15:00:00 TS 24.3612 139.316 main 1060 1039 P_P___________ WP202020 24.3250 139.428 DB 20 1007 -3 1009 127 42 24.3975 139.205 1 25 1008 4 346
2020293N23139 2020 96 WP MM NOT_NAMED 2020-10-21 18:00:00 TS 24.6000 139.300 main 1039 1021 O_O___________ jtwc_wp WP202020 24.6000 139.400 DB 20 1007 -3 1009 120 40 24.6000 139.200 1 25 1008 5 12
2020293N23139 2020 96 WP MM NOT_NAMED 2020-10-21 21:00:00 TS 24.8338 139.422 main 1021 993 P_P___________ WP202020 24.8625 139.465 DB 20 1007 -3 1009 115 35 24.8051 139.379 1 25 1008 6 18
2020293N23139 2020 96 WP MM NOT_NAMED 2020-10-22 00:00:00 TS 25.1500 139.500 main 982 944 O_O___________ jtwc_wp WP202020 25.2000 139.500 DB 20 1007 -3 1009 110 30 25.1000 139.500 1 25 1008 7 351
2020293N23139 2020 96 WP MM NOT_NAMED 2020-10-22 03:00:00 TS 25.5589 139.293 main 933 884 P_P___________ WP202020 25.6276 139.343 DB 20 1007 -3 1009 110 30 25.4903 139.244 1 25 1008 10 338
2020293N23139 2020 96 WP MM NOT_NAMED 2020-10-22 06:00:00 TS 26.0500 139.100 main 874 832 O_O___________ jtwc_wp WP202020 26.1000 139.200 DB 20 1007 -3 1009 110 30 26.0000 139.000 1 25 1008 10 354
2020293N23139 2020 96 WP MM NOT_NAMED 2020-10-22 09:00:00 TS 26.5587 139.175 main 826 783 P_P___________ WP202020 26.4974 139.233 DB 17 1008 -3 1009 117 30 26.6200 139.117 1 25 1008 12 13
2020293N23139 2020 96 WP MM NOT_NAMED 2020-10-22 12:00:00 TS 27.1714 139.400 main 772 727 O_O___________ jtwc_wp WP202020 27.0000 139.400 DB 15 1009 -3 1009 125 30 27.3000 139.400 1 25 1008 13 19
2020293N23139 2020 96 WP MM NOT_NAMED 2020-10-22 15:00:00 TS 27.8217 139.671 main 727 677 P_P___________ WP202020 27.7302 139.671 DB 15 1009 -3 1009 125 30 27.8675 139.671 1 25 1008 15 20
2020293N23139 2020 96 WP MM NOT_NAMED 2020-10-22 18:00:00 MX 28.6000 140.000 main 668 575 O_O___________ jtwc_wp WP202020 28.6000 140.000 EX 15 1009 -4 1009 125 30 28.6000 140.000 1 25 1008 20 18
2020293N23139 2020 96 WP MM NOT_NAMED 2020-10-22 21:00:00 TS 29.6903 140.382 main 566 452 __P___________ WP202020 EX -4 29.6903 140.382 1 25 1008 25 16
2020293N23139 2020 96 WP MM NOT_NAMED 2020-10-23 00:00:00 TS 31.0000 140.800 main 442 __O___________ -5 31.0000 140.800 1 25 1008 27 15

Digital Typhoon Data and Search

About IBTrACS Database

This database is a web-friendly format of International Best Track Archive for Climate Stewardship (IBTrACS), a global best track data archive curated by NOAA dating back to 1842.

Updated: 2023-01-27